• Join FlightAware (Why Join?)
  • Login
  • US Flag 
04:06AM EDT


 

Airport Tracker/Info


-or-


 

Live Flight TrackerFlight Track Log ✈ DKT84 ✈ 30-May-2013 ✈ KBIS - KFSD

Flight Track Log - Related Links

Times and Time Zones

All times are in EDT time to prevent confusion due to time zone crossing. See the DKT84 flight status page for this flight to view local times or setup timezone preferences in your user account.

Time Position Orientation Groundspeed Altitude Reporting Facility
EDT Latitude Longitude Course Direction KTS MPH feet Rate Location/Type
08:18PM 46.6922 -100.6439 136° Southeast 162 186 6,400  Level Minneapolis Center
08:19PM 46.6567 -100.5975 138° Southeast 167 192 8,200 1,680 Climbing Minneapolis Center
08:20PM 46.6214 -100.5492 137° Southeast 171 197 9,900 1,440 Climbing Minneapolis Center
08:21PM 46.5897 -100.4936 130° Southeast 188 216 11,200 1,200 Climbing Minneapolis Center
08:22PM 46.4840 -100.3565 135° Southeast  Level Estimated
08:22PM 46.5517 -100.4431 138° Southeast 187 215 12,400  Level Minneapolis Center
08:23PM 46.4366 -100.2906 136° Southeast  Level FlightAware Approximate
08:23PM 46.5058 -100.3794 136° Southeast 188 216 13,700  Level Minneapolis Center
08:24PM 46.4669 -100.3267 137° Southeast 192 221 15,200 1,200 Climbing Minneapolis Center
08:25PM 46.4272 -100.2733 137° Southeast 193 222 16,200 840 Climbing Minneapolis Center
08:26PM 46.3842 -100.2206 140° Southeast 199 229 17,000 360 Climbing Minneapolis Center
08:27PM 46.3361 -100.1608 139° Southeast 215 247 17,000  Level Minneapolis Center
08:28PM 46.2833 -100.0936 139° Southeast 242 278 17,000  Level Minneapolis Center
08:29PM 46.2319 -100.0236 137° Southeast 250 288 17,000  Level Minneapolis Center
08:30PM 46.1706 -99.9353 135° Southeast 257 296 17,100  Climbing Minneapolis Center
08:31PM 46.1183 -99.8614 136° Southeast 261 300 17,000 -60 Descending Minneapolis Center
08:32PM 46.0669 -99.7867 135° Southeast 262 302 17,000  Level Minneapolis Center
08:33PM 46.0153 -99.7122 135° Southeast 262 302 17,000  Level Minneapolis Center
08:34PM 45.9631 -99.6350 134° Southeast 265 305 17,100  Climbing Minneapolis Center
08:35PM 45.9108 -99.5608 135° Southeast 264 304 17,100  Level Minneapolis Center
08:36PM 45.8442 -99.4778 139° Southeast 264 304 17,200  Climbing Minneapolis Center
08:37PM 45.7889 -99.4111 140° Southeast 262 302 17,100 -60 Descending Minneapolis Center
08:38PM 45.7342 -99.3414 138° Southeast 262 302 17,100 -120 Level Minneapolis Center
08:39PM 45.6794 -99.2714 138° Southeast 263 303 16,900 -60 Descending Minneapolis Center
08:40PM 45.6239 -99.2014 139° Southeast 264 304 17,000  Climbing Minneapolis Center
08:42PM 45.5683 -99.1328 139° Southeast 264 304 16,900 -60 Descending Minneapolis Center
08:43PM 45.5139 -99.0647 139° Southeast 262 302 16,900  Level Minneapolis Center
08:44PM 45.4475 -98.9847 140° Southeast 260 299 16,900  Level Minneapolis Center
08:45PM 45.3917 -98.9183 140° Southeast 260 299 17,000  Climbing Minneapolis Center
08:46PM 45.3369 -98.8486 138° Southeast 262 302 16,900 -60 Descending Minneapolis Center
08:47PM 45.2833 -98.7797 138° Southeast 261 300 16,900  Level Minneapolis Center
08:48PM 45.2286 -98.7103 138° Southeast 262 302 16,900  Level Minneapolis Center
08:49PM 45.1747 -98.6394 137° Southeast 263 303 16,900  Level Minneapolis Center
08:50PM 45.1228 -98.5683 136° Southeast 261 300 16,900  Level Minneapolis Center
08:51PM 45.0578 -98.4839 137° Southeast 262 302 16,900  Level Minneapolis Center
08:52PM 45.0025 -98.4164 139° Southeast 262 302 16,900  Level Minneapolis Center
08:53PM 44.9511 -98.3542 139° Southeast 262 302 16,900  Level Minneapolis Center
08:54PM 44.8950 -98.2856 139° Southeast 265 305 17,000  Climbing Minneapolis Center
08:55PM 44.8289 -98.2039 139° Southeast 265 305 16,900  Descending Minneapolis Center
08:56PM 44.7747 -98.1344 138° Southeast 265 305 17,000  Climbing Minneapolis Center
08:57PM 44.7200 -98.0639 137° Southeast 266 306 17,000  Level Minneapolis Center
08:58PM 44.6661 -97.9936 137° Southeast 266 306 17,000 -60 Level Minneapolis Center
08:59PM 44.6097 -97.9256 139° Southeast 267 307 16,900 -60 Descending Minneapolis Center
09:00PM 44.5400 -97.8461 141° Southeast 269 310 16,900 -300 Level Minneapolis Center
09:01PM 44.4847 -97.7781 139° Southeast 267 307 16,300 -840 Descending Minneapolis Center
09:02PM 44.4250 -97.7053 139° Southeast 278 320 15,200 -1,020 Descending Minneapolis Center
09:03PM 44.3633 -97.6333 140° Southeast 286 329 14,200 -1,140 Descending Minneapolis Center
09:04PM 44.3025 -97.5603 139° Southeast 288 331 12,900 -1,560 Descending Minneapolis Center
09:05PM 44.2422 -97.4861 139° Southeast 290 334 11,000 -2,340 Descending Minneapolis Center
09:06PM 44.1700 -97.3928 137° Southeast 295 339 8,100 -1,980 Descending Minneapolis Center
09:07PM 44.1153 -97.3203 136° Southeast 287 330 7,000 -900 Descending Minneapolis Center
09:08PM 44.0611 -97.2525 138° Southeast 276 318 6,300 -360 Descending Minneapolis Center
09:09PM 44.0033 -97.1828 139° Southeast 274 315 6,300 -120 Level Minneapolis Center
09:10PM 43.9444 -97.1128 139° Southeast 276 318 6,100 -120 Descending Minneapolis Center
09:12PM 43.8764 -97.0308 139° Southeast 274 315 6,100 -60 Level Minneapolis Center
09:13PM 43.8208 -96.9631 139° Southeast 273 314 6,000 -60 Descending Minneapolis Center
09:14PM 43.8147 -96.8911 97° East 225 259 6,000 -120 Level Minneapolis Center
09:15PM 43.7719 -96.8547 148° Southeast 197 227 5,800 -540 Descending Minneapolis Center
09:16PM 43.7258 -96.8247 155° Southeast 189 217 4,900 -840 Descending Minneapolis Center
09:17PM 43.6842 -96.8011 158° South 178 205 4,100 -1,020 Descending Minneapolis Center
09:18PM 43.6433 -96.7747 155° Southeast 157 181 2,800 -1,020 Descending Minneapolis Center
09:19PM 43.6125 -96.7575 158° South 140 161 2,100 -480 Descending Minneapolis Center
09:20PM 43.5861 -96.7417 157° South 133 153 1,900 -240 Descending Minneapolis Center
09:22PM 43.5820 -96.7419 180° South  Level Estimated